createdAt,value
2023-04-20T00:02:25.433Z,0.70
2023-04-20T00:04:54.478Z,0.90
2023-04-20T00:07:24.912Z,0.80
2023-04-20T00:09:52.730Z,0.70
2023-04-20T00:12:20.787Z,1.00
2023-04-20T00:14:48.985Z,0.90
2023-04-20T00:17:17.520Z,0.85
2023-04-20T00:19:45.841Z,1.00
2023-04-20T00:22:14.306Z,1.00
2023-04-20T00:24:44.737Z,1.00
2023-04-20T00:27:12.581Z,1.10
2023-04-20T00:29:40.816Z,0.70
2023-04-20T00:32:08.336Z,0.82
2023-04-20T00:34:36.278Z,0.98
2023-04-20T00:37:04.412Z,1.10
2023-04-20T00:39:32.520Z,0.90
2023-04-20T00:42:07.876Z,0.82
2023-04-20T00:44:36.020Z,0.80
2023-04-20T00:47:03.577Z,0.98
2023-04-20T00:49:33.344Z,0.80
2023-04-20T00:52:01.406Z,0.90
2023-04-20T00:58:47.559Z,1.10
2023-04-20T01:01:17.864Z,0.77
2023-04-20T01:03:47.483Z,1.00
2023-04-20T01:06:15.637Z,0.80
2023-04-20T01:08:50.995Z,0.70
2023-04-20T01:11:18.644Z,1.08
2023-04-20T01:13:46.067Z,1.10
2023-04-20T01:16:13.818Z,0.70
2023-04-20T01:18:46.797Z,1.05
2023-04-20T01:21:15.367Z,1.20
2023-04-20T01:23:43.132Z,0.82
2023-04-20T01:26:12.533Z,1.38
2023-04-20T01:28:40.387Z,1.15
2023-04-20T01:31:09.284Z,1.00
2023-04-20T01:33:36.904Z,0.85
2023-04-20T01:38:49.130Z,1.52
2023-04-20T01:41:16.531Z,1.52
2023-04-20T01:43:44.143Z,1.27
2023-04-20T01:46:12.832Z,1.17
2023-04-20T01:48:40.719Z,1.35
2023-04-20T01:51:09.708Z,1.30
2023-04-20T01:53:37.140Z,1.30
2023-04-20T01:56:04.472Z,1.70
2023-04-20T01:58:31.748Z,1.50
2023-04-20T02:01:01.291Z,1.50
2023-04-20T02:03:28.878Z,1.40
2023-04-20T02:05:56.403Z,1.10
2023-04-20T02:08:38.331Z,1.10
2023-04-20T02:11:33.770Z,1.25
2023-04-20T02:14:10.704Z,1.13
2023-04-20T02:16:38.070Z,1.50
2023-04-20T02:19:05.351Z,1.45
2023-04-20T02:21:32.851Z,1.00
2023-04-20T02:24:12.325Z,1.30
2023-04-20T02:26:39.566Z,1.25
2023-04-20T02:29:08.010Z,1.60
2023-04-20T02:31:35.314Z,1.52
2023-04-20T02:34:02.934Z,1.35
2023-04-20T02:36:30.183Z,1.08
2023-04-20T02:38:57.414Z,1.42
2023-04-20T02:41:24.691Z,1.80
2023-04-20T02:43:52.025Z,1.23
2023-04-20T02:46:20.698Z,1.63
2023-04-20T02:48:48.575Z,1.40
2023-04-20T02:51:16.307Z,1.40
2023-04-20T02:53:45.646Z,1.30
2023-04-20T02:56:27.104Z,1.35
2023-04-20T02:58:57.183Z,1.30
2023-04-20T03:01:42.733Z,1.20
2023-04-20T03:04:15.942Z,1.33
2023-04-20T03:06:51.181Z,1.23
2023-04-20T03:09:24.059Z,1.70
2023-04-20T03:12:14.628Z,1.35
2023-04-20T03:15:00.471Z,2.00
2023-04-20T03:17:47.311Z,1.63
2023-04-20T03:20:15.443Z,1.75
2023-04-20T03:22:42.877Z,1.65
2023-04-20T03:25:10.514Z,1.42
2023-04-20T03:28:04.120Z,1.88
2023-04-20T03:30:31.577Z,2.10
2023-04-20T03:33:10.666Z,2.10
2023-04-20T03:35:39.583Z,2.30
2023-04-20T03:38:06.966Z,1.85
2023-04-20T03:40:35.145Z,2.13
2023-04-20T03:43:02.995Z,2.10
2023-04-20T03:45:30.199Z,2.05
2023-04-20T03:47:57.428Z,2.78
2023-04-20T03:50:25.895Z,2.38
2023-04-20T03:52:53.084Z,2.10
2023-04-20T03:55:21.221Z,1.98
2023-04-20T03:57:55.123Z,2.70
2023-04-20T04:00:23.027Z,3.40
2023-04-20T04:02:53.880Z,2.42
2023-04-20T04:05:26.238Z,2.40
2023-04-20T04:07:53.737Z,2.60
2023-04-20T04:10:21.535Z,2.28
2023-04-20T04:12:49.798Z,2.13
2023-04-20T04:15:19.769Z,2.10
2023-04-20T04:17:55.151Z,1.80
2023-04-20T04:20:23.081Z,2.10
2023-04-20T04:22:52.165Z,2.08
2023-04-20T04:25:40.417Z,1.95
2023-04-20T04:28:09.467Z,2.30
2023-04-20T04:30:42.290Z,2.20
2023-04-20T04:33:19.123Z,2.25
2023-04-20T04:35:48.825Z,2.08
2023-04-20T04:38:17.003Z,2.33
2023-04-20T04:40:47.914Z,2.33
2023-04-20T04:43:15.122Z,2.47
2023-04-20T04:45:50.149Z,2.45
2023-04-20T04:48:19.891Z,2.35
2023-04-20T04:51:16.665Z,2.50
2023-04-20T04:53:36.333Z,2.10
2023-04-20T04:56:04.323Z,2.30
2023-04-20T04:58:31.492Z,2.83
2023-04-20T05:00:58.794Z,2.65
2023-04-20T05:03:26.296Z,2.20
2023-04-20T05:05:53.999Z,2.17
2023-04-20T05:08:24.468Z,2.22
2023-04-20T05:10:52.076Z,2.30
2023-04-20T05:13:19.306Z,2.50
2023-04-20T05:15:46.640Z,2.35
2023-04-20T05:18:13.820Z,2.40
2023-04-20T05:20:41.141Z,2.70
2023-04-20T05:23:10.677Z,2.50
2023-04-20T05:25:38.386Z,3.00
2023-04-20T05:28:06.102Z,4.10
2023-04-20T05:30:40.889Z,3.08
2023-04-20T05:33:08.757Z,3.10
2023-04-20T05:35:36.242Z,3.22
2023-04-20T05:38:06.383Z,3.20
2023-04-20T05:40:37.396Z,2.88
2023-04-20T05:43:04.861Z,2.95
2023-04-20T05:45:34.446Z,3.20
2023-04-20T05:48:01.888Z,2.90
2023-04-20T05:50:29.247Z,2.95
2023-04-20T05:52:56.400Z,3.00
2023-04-20T05:55:31.139Z,3.30
2023-04-20T05:57:58.482Z,2.60
2023-04-20T06:00:26.263Z,2.97
2023-04-20T06:02:55.137Z,2.63
2023-04-20T06:05:24.844Z,2.80
2023-04-20T06:07:52.127Z,2.55
2023-04-20T06:10:21.184Z,2.30
2023-04-20T06:12:48.868Z,1.83
2023-04-20T06:15:17.080Z,2.30
2023-04-20T06:17:44.427Z,2.50
2023-04-20T06:20:11.884Z,2.63
2023-04-20T06:22:48.513Z,2.85
2023-04-20T06:25:27.904Z,3.17
2023-04-20T06:27:55.227Z,2.83
2023-04-20T06:30:25.453Z,2.90
2023-04-20T06:32:52.781Z,3.15
2023-04-20T06:35:26.237Z,3.00
2023-04-20T06:37:55.789Z,3.38
2023-04-20T06:40:23.508Z,3.20
2023-04-20T06:42:50.810Z,2.72
2023-04-20T06:45:18.685Z,2.60
2023-04-20T06:47:45.996Z,2.50
2023-04-20T06:50:13.428Z,2.63
2023-04-20T06:52:43.755Z,2.30
2023-04-20T06:55:11.248Z,2.58
2023-04-20T06:57:39.625Z,2.40
2023-04-20T07:00:12.422Z,2.50
2023-04-20T07:02:48.523Z,2.70
2023-04-20T07:05:18.667Z,2.70
2023-04-20T07:07:46.273Z,3.00
2023-04-20T07:10:14.922Z,2.30
2023-04-20T07:12:44.740Z,2.72
2023-04-20T07:15:38.049Z,2.33
2023-04-20T07:18:05.306Z,2.72
2023-04-20T07:20:57.775Z,3.30
2023-04-20T07:23:31.413Z,2.50
2023-04-20T07:25:59.108Z,2.17
2023-04-20T07:28:26.396Z,1.83
2023-04-20T07:30:53.824Z,1.50
2023-04-20T07:33:21.306Z,1.98
2023-04-20T07:38:30.007Z,1.50
2023-04-20T07:40:57.222Z,1.10
2023-04-20T07:43:24.729Z,0.90
2023-04-20T07:45:52.144Z,1.00
2023-04-20T07:48:19.553Z,1.30
2023-04-20T07:51:16.075Z,1.10
2023-04-20T07:53:44.889Z,1.05
2023-04-20T07:56:12.117Z,1.02
2023-04-20T07:58:42.931Z,1.10
2023-04-20T08:01:11.449Z,1.10
2023-04-20T08:03:39.089Z,1.02
2023-04-20T08:06:06.694Z,1.38
2023-04-20T08:08:35.012Z,1.73
2023-04-20T08:11:02.594Z,1.70
2023-04-20T08:13:30.946Z,1.70
2023-04-20T08:15:58.319Z,1.70
2023-04-20T08:18:26.038Z,1.48
2023-04-20T08:20:54.328Z,1.27
2023-04-20T08:23:28.117Z,1.20
2023-04-20T08:25:55.651Z,1.60
2023-04-20T08:29:13.363Z,1.50
2023-04-20T08:31:40.920Z,1.60
2023-04-20T08:34:08.892Z,1.50
2023-04-20T08:36:36.681Z,1.40
2023-04-20T08:39:54.488Z,1.23
2023-04-20T08:43:12.757Z,1.40
2023-04-20T08:45:42.305Z,1.63
2023-04-20T08:48:36.828Z,1.50
2023-04-20T08:51:19.496Z,1.58
2023-04-20T08:53:50.547Z,1.65
2023-04-20T08:56:17.777Z,1.55
2023-04-20T08:59:22.486Z,1.50
2023-04-20T09:01:53.197Z,1.60
2023-04-20T09:04:22.792Z,1.58
2023-04-20T09:06:55.834Z,1.52
2023-04-20T09:09:25.733Z,1.65
2023-04-20T09:12:07.723Z,1.70
2023-04-20T09:14:45.866Z,1.55
2023-04-20T09:17:15.176Z,1.80
2023-04-20T09:19:45.169Z,1.40
2023-04-20T09:22:12.480Z,1.67
2023-04-20T09:24:41.225Z,1.58
2023-04-20T09:27:18.840Z,1.70
2023-04-20T09:29:57.874Z,1.75
2023-04-20T09:32:25.928Z,1.67
2023-04-20T09:34:52.884Z,1.77
2023-04-20T09:37:20.060Z,2.00
2023-04-20T09:39:47.223Z,2.00
2023-04-20T09:42:15.663Z,1.60
2023-04-20T09:44:43.573Z,2.05
2023-04-20T09:47:16.946Z,1.67
2023-04-20T09:49:47.631Z,1.33
2023-04-20T09:52:18.768Z,2.00
2023-04-20T09:54:46.272Z,2.05
2023-04-20T09:57:14.400Z,2.20
2023-04-20T09:59:44.182Z,2.17
2023-04-20T10:02:13.264Z,1.98
2023-04-20T10:04:56.759Z,2.10
2023-04-20T10:07:28.562Z,2.38
2023-04-20T10:10:07.300Z,1.92
2023-04-20T10:12:37.049Z,2.30
2023-04-20T10:15:04.414Z,2.05
2023-04-20T10:17:32.652Z,2.50
2023-04-20T10:19:59.948Z,2.20
2023-04-20T10:22:33.103Z,2.47
2023-04-20T10:25:02.258Z,1.98
2023-04-20T10:27:32.227Z,2.65
2023-04-20T10:30:10.291Z,2.58
2023-04-20T10:32:37.252Z,2.45
2023-04-20T10:35:10.908Z,2.80
2023-04-20T10:37:49.381Z,2.58
2023-04-20T10:40:16.716Z,2.65
2023-04-20T10:42:44.825Z,2.80
2023-04-20T10:45:12.665Z,2.45
2023-04-20T10:47:42.714Z,2.60
2023-04-20T10:50:12.302Z,2.90
2023-04-20T10:52:41.306Z,2.55
2023-04-20T10:55:22.768Z,2.70
2023-04-20T10:57:50.459Z,3.22
2023-04-20T11:00:19.010Z,3.00
2023-04-20T11:02:50.587Z,2.72
2023-04-20T11:07:52.545Z,2.80
2023-04-20T11:10:20.862Z,2.80
2023-04-20T11:12:47.969Z,2.38
2023-04-20T11:15:16.418Z,2.83
2023-04-20T11:17:43.613Z,3.00
2023-04-20T11:20:17.209Z,3.20
2023-04-20T11:22:56.009Z,3.03
2023-04-20T11:25:23.000Z,3.10
2023-04-20T11:27:49.886Z,2.95
2023-04-20T11:30:17.115Z,2.70
2023-04-20T11:32:53.695Z,2.97
2023-04-20T11:35:20.848Z,2.95
2023-04-20T11:37:51.459Z,2.42
2023-04-20T11:40:18.727Z,2.90
2023-04-20T11:42:46.376Z,3.10
2023-04-20T11:45:13.429Z,3.08
2023-04-20T11:47:41.156Z,3.00
2023-04-20T11:50:10.461Z,2.65
2023-04-20T11:52:37.688Z,2.78
2023-04-20T11:55:05.057Z,3.00
2023-04-20T11:57:32.762Z,3.08
2023-04-20T11:59:59.759Z,3.20
2023-04-20T12:02:27.073Z,2.58
2023-04-20T12:04:54.266Z,3.42
2023-04-20T12:07:22.439Z,2.95
2023-04-20T12:09:49.537Z,3.13
2023-04-20T12:12:16.451Z,3.10
2023-04-20T12:14:43.337Z,2.90
2023-04-20T12:17:11.126Z,3.28
2023-04-20T12:19:38.070Z,2.80
2023-04-20T12:22:04.991Z,3.17
2023-04-20T12:24:34.428Z,2.30
2023-04-20T12:27:01.710Z,2.70
2023-04-20T12:29:31.253Z,3.15
2023-04-20T12:31:59.003Z,3.08
2023-04-20T12:34:26.846Z,2.97
2023-04-20T12:36:54.290Z,2.53
2023-04-20T12:39:22.119Z,2.72
2023-04-20T12:41:49.418Z,2.53
2023-04-20T12:44:17.815Z,2.22
2023-04-20T12:46:45.650Z,2.50
2023-04-20T12:49:13.026Z,2.70
2023-04-20T12:51:40.938Z,2.38
2023-04-20T12:54:08.710Z,2.03
2023-04-20T12:56:36.332Z,2.20
2023-04-20T12:59:03.721Z,2.45
2023-04-20T13:01:31.274Z,2.45
2023-04-20T13:04:20.891Z,3.00
2023-04-20T13:06:49.505Z,2.63
2023-04-20T13:09:16.901Z,2.00
2023-04-20T13:11:44.635Z,2.30
2023-04-20T13:14:11.898Z,2.08
2023-04-20T13:16:39.430Z,2.58
2023-04-20T13:19:06.802Z,2.38
2023-04-20T13:21:34.338Z,2.20
2023-04-20T13:24:01.952Z,2.10
2023-04-20T13:26:29.436Z,2.10
2023-04-20T13:28:58.557Z,2.00
2023-04-20T13:31:26.057Z,1.90
2023-04-20T13:33:56.214Z,1.90
2023-04-20T13:36:28.344Z,2.38
2023-04-20T13:38:56.264Z,2.47
2023-04-20T13:41:23.881Z,2.25
2023-04-20T13:43:51.950Z,1.98
2023-04-20T13:46:20.277Z,1.98
2023-04-20T13:48:47.520Z,2.20
2023-04-20T13:51:15.056Z,2.33
2023-04-20T13:53:42.458Z,2.28
2023-04-20T13:56:09.836Z,2.30
2023-04-20T13:58:37.249Z,2.70
2023-04-20T14:01:12.024Z,2.45
2023-04-20T14:03:39.274Z,2.08
2023-04-20T14:06:07.089Z,2.50
2023-04-20T14:08:34.571Z,2.30
2023-04-20T14:11:02.093Z,2.75
2023-04-20T14:13:29.237Z,2.67
2023-04-20T14:15:57.638Z,2.13
2023-04-20T14:18:24.777Z,2.17
2023-04-20T14:20:52.571Z,2.67
2023-04-20T14:23:19.959Z,2.08
2023-04-20T14:25:47.403Z,1.77
2023-04-20T14:28:16.882Z,1.95
2023-04-20T14:30:45.982Z,1.80
2023-04-20T14:33:13.627Z,5.97
2023-04-20T14:35:40.964Z,2.20
2023-04-20T14:38:08.549Z,2.22
2023-04-20T14:40:35.823Z,2.35
2023-04-20T14:43:03.145Z,2.08
2023-04-20T14:45:33.219Z,1.90
2023-04-20T14:48:00.678Z,2.20
2023-04-20T14:50:28.170Z,2.55
2023-04-20T14:52:56.264Z,2.13
2023-04-20T14:55:26.091Z,2.45
2023-04-20T14:57:58.071Z,2.13
2023-04-20T15:00:28.322Z,2.20
2023-04-20T15:03:01.314Z,8.23
2023-04-20T15:05:38.004Z,1.85
2023-04-20T15:08:06.829Z,2.20
2023-04-20T15:10:35.252Z,3.88
2023-04-20T15:13:03.230Z,2.95
2023-04-20T15:15:46.930Z,2.85
2023-04-20T15:18:16.727Z,2.33
2023-04-20T15:20:44.250Z,2.30
2023-04-20T15:23:11.832Z,2.70
2023-04-20T15:25:39.325Z,2.45
2023-04-20T15:28:06.996Z,2.38
2023-04-20T15:30:34.735Z,2.72
2023-04-20T15:33:04.740Z,3.20
2023-04-20T15:35:33.571Z,2.53
2023-04-20T15:38:01.020Z,3.03
2023-04-20T15:41:49.423Z,3.22
2023-04-20T15:44:18.356Z,2.80
2023-04-20T15:46:45.862Z,2.60
2023-04-20T15:49:13.108Z,2.53
2023-04-20T15:51:41.590Z,3.22
2023-04-20T15:54:09.845Z,3.75
2023-04-20T15:56:37.283Z,2.40
2023-04-20T15:59:30.096Z,2.40
2023-04-20T16:01:57.734Z,2.63
2023-04-20T16:04:25.568Z,3.10
2023-04-20T16:06:53.058Z,3.28
2023-04-20T16:09:21.695Z,4.03
2023-04-20T16:11:50.469Z,3.00
2023-04-20T16:14:18.152Z,2.40
2023-04-20T16:17:11.198Z,3.03
2023-04-20T16:19:38.465Z,2.70
2023-04-20T16:22:05.968Z,3.45
2023-04-20T16:24:33.644Z,3.92
2023-04-20T16:27:27.843Z,2.70
2023-04-20T16:29:55.268Z,2.72
2023-04-20T16:32:22.500Z,2.95
2023-04-20T16:34:49.786Z,4.53
2023-04-20T16:37:18.355Z,3.05
2023-04-20T16:39:48.455Z,4.05
2023-04-20T16:42:16.362Z,4.22
2023-04-20T16:44:43.831Z,5.70
2023-04-20T16:47:11.326Z,4.60
2023-04-20T16:49:38.857Z,3.38
2023-04-20T16:52:06.204Z,2.38
2023-04-20T16:54:33.961Z,3.50
2023-04-20T16:57:01.933Z,5.18
2023-04-20T16:59:29.332Z,3.85
2023-04-20T17:01:57.208Z,3.60
2023-04-20T17:04:25.432Z,3.15
2023-04-20T17:06:53.641Z,5.47
2023-04-20T17:09:23.896Z,2.83
2023-04-20T17:11:52.839Z,2.00
2023-04-20T17:14:21.202Z,1.55
2023-04-20T17:16:50.942Z,1.90
2023-04-20T17:19:19.833Z,2.47
2023-04-20T17:26:59.298Z,2.28
2023-04-20T17:29:27.001Z,2.35
2023-04-20T17:31:55.368Z,2.10
2023-04-20T17:34:23.359Z,1.92
2023-04-20T17:36:50.909Z,2.58
2023-04-20T17:39:18.846Z,2.50
2023-04-20T17:41:46.433Z,2.13
2023-04-20T17:44:14.071Z,1.80
2023-04-20T17:46:41.896Z,1.90
2023-04-20T17:49:09.281Z,2.35
2023-04-20T17:51:36.674Z,1.88
2023-04-20T17:54:04.452Z,2.00
2023-04-20T17:56:31.975Z,2.38
2023-04-20T17:58:59.265Z,1.92
2023-04-20T18:01:28.201Z,2.25
2023-04-20T18:03:56.606Z,2.10
2023-04-20T18:06:28.074Z,2.40
2023-04-20T18:08:56.994Z,2.30
2023-04-20T18:11:24.214Z,2.30
2023-04-20T18:13:52.131Z,2.75
2023-04-20T18:16:19.744Z,3.00
2023-04-20T18:18:47.158Z,3.40
2023-04-20T18:21:15.412Z,3.22
2023-04-20T18:23:44.641Z,3.50
2023-04-20T18:26:18.083Z,3.42
2023-04-20T18:28:46.716Z,3.20
2023-04-20T18:31:40.303Z,3.13
2023-04-20T18:34:09.902Z,3.10
2023-04-20T18:36:37.996Z,3.03
2023-04-20T18:39:06.586Z,3.33
2023-04-20T18:41:34.604Z,3.42
2023-04-20T18:44:02.708Z,3.25
2023-04-20T18:47:03.827Z,3.60
2023-04-20T18:49:35.775Z,3.00
2023-04-20T18:52:32.529Z,3.17
2023-04-20T18:55:02.244Z,3.00
2023-04-20T18:57:31.086Z,2.45
2023-04-20T18:59:59.429Z,2.70
2023-04-20T19:02:28.671Z,3.10
2023-04-20T19:04:59.261Z,2.67
2023-04-20T19:07:31.607Z,2.60
2023-04-20T19:10:00.690Z,3.00
2023-04-20T19:12:35.952Z,2.88
2023-04-20T19:15:06.209Z,2.85
2023-04-20T19:17:36.923Z,2.67
2023-04-20T19:20:09.895Z,3.13
2023-04-20T19:22:45.427Z,2.70
2023-04-20T19:25:49.962Z,2.80
2023-04-20T19:28:55.670Z,2.60
2023-04-20T19:31:24.536Z,2.80
2023-04-20T19:33:55.300Z,2.90
2023-04-20T19:36:27.344Z,2.78
2023-04-20T19:38:56.481Z,3.33
2023-04-20T19:41:27.056Z,2.60
2023-04-20T19:43:55.476Z,3.22
2023-04-20T19:46:24.043Z,3.30
2023-04-20T19:48:53.271Z,2.90
2023-04-20T19:51:22.922Z,3.05
2023-04-20T19:53:51.337Z,2.90
2023-04-20T19:56:20.173Z,3.00
2023-04-20T19:58:48.113Z,2.88
2023-04-20T20:01:16.026Z,2.97
2023-04-20T20:03:44.081Z,2.70
2023-04-20T20:07:06.142Z,3.05
2023-04-20T20:09:34.513Z,3.03
2023-04-20T20:12:06.228Z,2.88
2023-04-20T20:14:36.475Z,2.88
2023-04-20T20:19:33.715Z,3.00
2023-04-20T20:22:01.112Z,3.20
2023-04-20T20:24:28.639Z,3.08
2023-04-20T20:26:55.975Z,3.47
2023-04-20T20:29:24.206Z,3.67
2023-04-20T20:31:51.860Z,3.75
2023-04-20T20:34:19.540Z,3.58
2023-04-20T20:36:57.234Z,3.53
2023-04-20T20:39:25.024Z,3.72
2023-04-20T20:41:53.115Z,3.97
2023-04-20T20:44:20.977Z,3.88
2023-04-20T20:46:49.119Z,3.90
2023-04-20T20:49:17.328Z,3.47
2023-04-20T20:51:44.822Z,3.50
2023-04-20T20:54:12.120Z,2.83
2023-04-20T20:56:39.594Z,3.33
2023-04-20T20:59:07.164Z,3.72
2023-04-20T21:01:34.869Z,3.72
2023-04-20T21:04:02.366Z,3.25
2023-04-20T21:06:30.014Z,3.33
2023-04-20T21:08:58.700Z,3.65
2023-04-20T21:11:26.275Z,3.38
2023-04-20T21:13:54.708Z,3.30
2023-04-20T21:16:21.893Z,3.05
2023-04-20T21:18:49.641Z,3.50
2023-04-20T21:21:17.463Z,2.78
2023-04-20T21:23:45.133Z,2.95
2023-04-20T21:26:12.738Z,2.90
2023-04-20T21:28:40.150Z,3.30
2023-04-20T21:31:07.981Z,3.08
2023-04-20T21:33:36.027Z,3.00
2023-04-20T21:36:03.519Z,3.40
2023-04-20T21:38:31.202Z,4.10
2023-04-20T21:41:02.873Z,3.30
2023-04-20T21:43:30.125Z,3.70
2023-04-20T21:45:57.689Z,3.20
2023-04-20T21:48:25.090Z,3.72
2023-04-20T21:50:52.508Z,3.65
2023-04-20T21:53:20.125Z,4.00
2023-04-20T21:55:47.853Z,3.75
2023-04-20T21:58:15.861Z,3.47
2023-04-20T22:00:43.311Z,3.70
2023-04-20T22:03:11.128Z,3.83
2023-04-20T22:05:39.342Z,3.28
2023-04-20T22:08:06.918Z,3.45
2023-04-20T22:10:34.323Z,3.58
2023-04-20T22:13:01.737Z,3.58
2023-04-20T22:15:30.184Z,3.78
2023-04-20T22:18:00.972Z,4.10
2023-04-20T22:20:28.314Z,3.25
2023-04-20T22:22:56.171Z,4.05
2023-04-20T22:25:25.013Z,3.75
2023-04-20T22:27:52.232Z,3.13
2023-04-20T22:30:19.875Z,3.67
2023-04-20T22:32:47.447Z,3.28
2023-04-20T22:35:15.017Z,3.47
2023-04-20T22:37:42.175Z,3.88
2023-04-20T22:40:10.342Z,3.05
2023-04-20T22:42:37.837Z,3.67
2023-04-20T22:45:05.903Z,3.10
2023-04-20T22:47:33.284Z,3.13
2023-04-20T22:50:01.962Z,3.38
2023-04-20T22:52:29.252Z,2.92
2023-04-20T22:54:56.545Z,2.90
2023-04-20T22:57:24.246Z,3.15
2023-04-20T22:59:51.908Z,2.75
2023-04-20T23:02:19.476Z,3.17
2023-04-20T23:04:47.461Z,2.78
2023-04-20T23:07:15.091Z,2.85
2023-04-20T23:09:49.472Z,3.10
2023-04-20T23:12:22.422Z,2.85
2023-04-20T23:14:51.201Z,2.50
2023-04-20T23:17:18.960Z,2.72
2023-04-20T23:19:46.528Z,3.05
2023-04-20T23:22:14.361Z,2.55
2023-04-20T23:24:41.574Z,3.40
2023-04-20T23:27:08.956Z,2.58
2023-04-20T23:29:36.470Z,3.35
2023-04-20T23:32:03.881Z,3.10
2023-04-20T23:34:31.298Z,2.80
2023-04-20T23:36:58.820Z,3.50
2023-04-20T23:39:27.125Z,3.40
2023-04-20T23:41:54.374Z,2.90
2023-04-20T23:44:21.794Z,3.53
2023-04-20T23:46:49.106Z,3.08
2023-04-20T23:49:16.384Z,3.20
2023-04-20T23:51:43.575Z,3.33
2023-04-20T23:54:10.805Z,3.33
2023-04-20T23:56:37.955Z,2.90
2023-04-20T23:59:05.471Z,3.38
